Time;durP1;ratioP1;P1;durP2;ratioP2;P2;SDS_P1;SDS_P2;PMS_P1;PMS_P2;Temp;Humidity;BMP_temperature;BMP_pressure;BME280_temperature;BME280_humidity;BME280_pressure;Samples;Min_cycle;Max_cycle;Signal;HPM_P1;HPM_P2
2021/03/16 00:01:39;;;;;;;;;36.00;25.75;;;;;;;;5023101;28;11590;-78
2021/03/16 00:04:07;;;;;;;;;26.50;18.25;;;;;;;;5022838;28;11616;-79
2021/03/16 00:06:34;;;;;;;;;22.50;18.00;;;;;;;;5023022;28;11594;-73
2021/03/16 00:09:01;;;;;;;;;29.00;25.50;;;;;;;;5018926;28;12444;-74
2021/03/16 00:11:28;;;;;;;;;31.50;26.25;;;;;;;;5020309;28;11595;-77
2021/03/16 00:13:55;;;;;;;;;25.25;19.50;;;;;;;;5018022;28;11619;-75
2021/03/16 00:16:23;;;;;;;;;32.75;22.50;;;;;;;;5022356;28;12213;-75
2021/03/16 00:18:50;;;;;;;;;16.50;14.75;;;;;;;;5023462;28;11609;-75
2021/03/16 00:21:18;;;;;;;;;25.25;23.50;;;;;;;;5023402;28;11577;-77
2021/03/16 00:23:45;;;;;;;;;22.00;20.50;;;;;;;;5022300;28;11617;-75
2021/03/16 00:26:12;;;;;;;;;30.00;28.00;;;;;;;;5011634;28;11633;-80
2021/03/16 00:28:39;;;;;;;;;22.25;19.50;;;;;;;;5020660;28;11712;-80
2021/03/16 00:31:06;;;;;;;;;25.75;21.50;;;;;;;;5016553;28;11594;-76
2021/03/16 00:33:33;;;;;;;;;30.25;24.75;;;;;;;;5023308;28;11631;-77
2021/03/16 00:36:00;;;;;;;;;35.75;27.25;;;;;;;;5022901;28;11609;-78
2021/03/16 00:38:28;;;;;;;;;25.00;24.00;;;;;;;;5020572;28;12570;-80
2021/03/16 00:40:55;;;;;;;;;28.75;26.25;;;;;;;;5017135;28;11566;-77
2021/03/16 00:43:22;;;;;;;;;26.25;22.00;;;;;;;;5021796;28;11612;-76
2021/03/16 00:45:49;;;;;;;;;21.50;17.25;;;;;;;;5021951;28;11734;-82
2021/03/16 00:48:16;;;;;;;;;19.75;19.75;;;;;;;;5022002;28;11695;-75
2021/03/16 00:50:43;;;;;;;;;16.00;16.00;;;;;;;;5023223;28;11747;-81
2021/03/16 00:53:11;;;;;;;;;21.25;15.75;;;;;;;;5017233;28;11591;-75
2021/03/16 00:55:39;;;;;;;;;24.50;21.25;;;;;;;;5018672;28;11620;-83
2021/03/16 00:58:06;;;;;;;;;26.00;23.00;;;;;;;;5023293;28;11714;-83
2021/03/16 01:00:33;;;;;;;;;20.25;17.25;;;;;;;;5017720;28;11520;-80
2021/03/16 01:03:00;;;;;;;;;19.00;18.00;;;;;;;;5020608;28;11567;-81
2021/03/16 01:05:27;;;;;;;;;21.50;21.50;;;;;;;;5022824;28;11630;-78
2021/03/16 01:07:54;;;;;;;;;22.25;20.00;;;;;;;;5021730;28;11593;-84
2021/03/16 01:10:23;;;;;;;;;15.50;15.50;;;;;;;;5013841;28;11598;-85
2021/03/16 01:12:51;;;;;;;;;21.00;17.25;;;;;;;;5023417;28;11637;-84
2021/03/16 01:15:18;;;;;;;;;23.50;22.50;;;;;;;;5022594;28;11590;-79
2021/03/16 01:17:45;;;;;;;;;16.25;15.50;;;;;;;;5022026;28;11728;-75
2021/03/16 01:20:14;;;;;;;;;17.50;14.75;;;;;;;;5022892;28;11575;-76
2021/03/16 01:22:41;;;;;;;;;19.00;17.00;;;;;;;;5018597;28;11745;-85
2021/03/16 01:25:10;;;;;;;;;21.00;18.00;;;;;;;;5026851;28;11619;-78
2021/03/16 01:27:37;;;;;;;;;17.25;17.25;;;;;;;;5024270;28;11607;-81
2021/03/16 01:30:07;;;;;;;;;18.75;16.25;;;;;;;;5024041;28;11710;-81
2021/03/16 01:32:34;;;;;;;;;23.75;23.75;;;;;;;;5025907;28;11591;-80
2021/03/16 01:35:02;;;;;;;;;22.50;15.75;;;;;;;;5026437;28;11702;-77
2021/03/16 01:37:29;;;;;;;;;25.75;23.50;;;;;;;;5027176;28;11692;-76
2021/03/16 01:39:56;;;;;;;;;32.50;27.25;;;;;;;;5020830;28;11676;-76
2021/03/16 01:42:23;;;;;;;;;45.67;34.00;;;;;;;;5024510;28;11591;-81
2021/03/16 01:44:50;;;;;;;;;30.00;24.50;;;;;;;;5024973;28;11691;-76
2021/03/16 01:47:19;;;;;;;;;35.33;29.67;;;;;;;;5026067;28;11738;-73
2021/03/16 01:49:46;;;;;;;;;48.67;41.33;;;;;;;;5025768;28;11584;-81
2021/03/16 01:52:14;;;;;;;;;47.00;43.00;;;;;;;;5026037;28;11619;-74
2021/03/16 01:54:42;;;;;;;;;43.00;34.67;;;;;;;;5024847;28;11577;-73
2021/03/16 01:57:10;;;;;;;;;34.00;30.67;;;;;;;;5024511;28;12259;-73
2021/03/16 01:59:37;;;;;;;;;24.75;23.50;;;;;;;;5025009;28;11593;-80
2021/03/16 02:02:04;;;;;;;;;31.00;28.00;;;;;;;;5024782;28;11662;-74
2021/03/16 02:04:32;;;;;;;;;27.75;23.75;;;;;;;;5025253;28;11663;-74
2021/03/16 02:07:04;;;;;;;;;24.50;21.50;;;;;;;;5023957;28;11674;-73
2021/03/16 02:09:36;;;;;;;;;23.00;20.50;;;;;;;;5039241;28;11589;-71
2021/03/16 02:12:06;;;;;;;;;5.50;5.50;;;;;;;;5021550;28;11604;-73
2021/03/16 02:14:37;;;;;;;;;29.50;20.75;;;;;;;;5022785;28;12459;-78
2021/03/16 02:17:08;;;;;;;;;24.00;18.50;;;;;;;;5025603;28;11632;-72
2021/03/16 02:20:08;;;;;;;;;27.00;20.00;;;;;;;;5023257;28;11690;-73
2021/03/16 02:22:37;;;;;;;;;28.25;20.75;;;;;;;;5022803;28;11627;-76
2021/03/16 02:25:26;;;;;;;;;27.25;25.00;;;;;;;;5023570;28;11580;-75
2021/03/16 02:28:14;;;;;;;;;26.25;23.50;;;;;;;;5022382;28;11665;-80
2021/03/16 02:30:43;;;;;;;;;19.75;16.50;;;;;;;;5014965;28;11536;-77
2021/03/16 02:33:12;;;;;;;;;18.00;18.00;;;;;;;;5024453;28;11755;-81
2021/03/16 02:35:41;;;;;;;;;7.75;7.00;;;;;;;;5022792;28;11568;-81
2021/03/16 02:38:09;;;;;;;;;24.50;21.25;;;;;;;;5024616;28;11542;-76
2021/03/16 02:40:37;;;;;;;;;19.00;13.00;;;;;;;;5021996;28;11726;-81
2021/03/16 02:43:05;;;;;;;;;31.75;23.50;;;;;;;;5017114;28;11718;-74
2021/03/16 02:45:33;;;;;;;;;28.00;21.33;;;;;;;;5022390;28;11632;-81
2021/03/16 02:48:02;;;;;;;;;27.00;25.00;;;;;;;;5024915;28;11718;-80
2021/03/16 02:50:29;;;;;;;;;26.00;25.33;;;;;;;;5022644;28;11597;-80
2021/03/16 02:52:56;;;;;;;;;28.33;28.33;;;;;;;;5023998;28;12371;-76
2021/03/16 02:55:23;;;;;;;;;32.67;28.00;;;;;;;;5021908;28;11607;-76
2021/03/16 02:57:51;;;;;;;;;31.33;27.00;;;;;;;;5023442;28;11591;-76
2021/03/16 03:00:19;;;;;;;;;28.00;24.33;;;;;;;;5017892;28;11591;-77
2021/03/16 03:02:47;;;;;;;;;34.00;29.00;;;;;;;;5020759;28;11720;-81
2021/03/16 03:05:15;;;;;;;;;29.33;27.00;;;;;;;;5023564;28;11601;-78
2021/03/16 03:07:43;;;;;;;;;30.67;26.33;;;;;;;;5036879;28;11635;-80
2021/03/16 03:10:10;;;;;;;;;33.33;29.00;;;;;;;;5018636;28;11638;-78
2021/03/16 03:12:37;;;;;;;;;32.00;25.25;;;;;;;;5020747;28;11624;-74
2021/03/16 03:15:07;;;;;;;;;27.00;22.25;;;;;;;;5021443;28;11602;-75
2021/03/16 03:17:34;;;;;;;;;25.50;23.50;;;;;;;;5024605;28;11602;-79
2021/03/16 03:20:01;;;;;;;;;23.75;22.75;;;;;;;;5022953;28;11752;-78
2021/03/16 03:22:35;;;;;;;;;37.75;31.25;;;;;;;;5023477;28;11601;-74
2021/03/16 03:25:06;;;;;;;;;26.25;25.25;;;;;;;;5022825;28;11623;-74
2021/03/16 03:27:35;;;;;;;;;31.00;26.00;;;;;;;;5023761;28;11600;-80
2021/03/16 03:30:05;;;;;;;;;24.00;21.75;;;;;;;;5020985;28;11678;-76
2021/03/16 03:32:34;;;;;;;;;36.50;28.75;;;;;;;;5024043;28;11678;-74
2021/03/16 03:35:02;;;;;;;;;26.00;21.75;;;;;;;;5024643;28;11686;-74
2021/03/16 03:37:32;;;;;;;;;34.25;29.25;;;;;;;;5023163;28;11606;-75
2021/03/16 03:40:00;;;;;;;;;32.25;27.00;;;;;;;;5024426;28;11603;-79
2021/03/16 03:42:28;;;;;;;;;27.00;22.75;;;;;;;;5021608;28;11621;-78
2021/03/16 03:44:56;;;;;;;;;30.25;22.50;;;;;;;;5019129;28;11617;-73
2021/03/16 03:47:23;;;;;;;;;32.00;31.25;;;;;;;;5022648;28;11718;-76
2021/03/16 03:49:51;;;;;;;;;32.75;24.00;;;;;;;;5023908;28;11624;-77
2021/03/16 03:52:19;;;;;;;;;35.00;29.75;;;;;;;;5021895;28;11558;-79
2021/03/16 03:54:47;;;;;;;;;31.00;31.00;;;;;;;;5022201;28;11623;-74
2021/03/16 03:57:15;;;;;;;;;30.50;27.50;;;;;;;;5023267;28;11567;-78
2021/03/16 03:59:44;;;;;;;;;37.75;30.25;;;;;;;;5021899;28;11607;-79
2021/03/16 04:02:11;;;;;;;;;27.25;20.50;;;;;;;;5023247;28;11548;-75
2021/03/16 04:04:39;;;;;;;;;35.50;28.75;;;;;;;;5023212;28;11570;-78
2021/03/16 04:07:07;;;;;;;;;29.00;25.25;;;;;;;;5021237;28;11634;-78
2021/03/16 04:09:34;;;;;;;;;27.50;22.50;;;;;;;;5018411;28;11572;-73
2021/03/16 04:12:03;;;;;;;;;37.25;32.25;;;;;;;;5019108;28;11585;-75
2021/03/16 04:14:30;;;;;;;;;34.00;32.50;;;;;;;;5021190;28;11649;-79
2021/03/16 04:16:57;;;;;;;;;37.00;30.50;;;;;;;;5004213;28;11640;-75
2021/03/16 04:19:25;;;;;;;;;29.75;29.75;;;;;;;;5023023;28;11597;-75
2021/03/16 04:21:52;;;;;;;;;21.75;20.75;;;;;;;;5022881;28;11583;-80
2021/03/16 04:24:19;;;;;;;;;25.75;22.75;;;;;;;;5033930;28;11715;-75
2021/03/16 04:26:46;;;;;;;;;29.75;26.00;;;;;;;;5037918;28;11645;-79
2021/03/16 04:29:14;;;;;;;;;26.33;23.67;;;;;;;;5019271;28;11747;-77
2021/03/16 04:31:41;;;;;;;;;32.50;27.75;;;;;;;;5025715;28;11517;-81
2021/03/16 04:34:09;;;;;;;;;35.00;32.00;;;;;;;;5023850;28;11734;-83
2021/03/16 04:36:35;;;;;;;;;32.00;25.75;;;;;;;;5023678;28;11621;-82
2021/03/16 04:39:02;;;;;;;;;35.25;32.25;;;;;;;;5023286;28;11615;-83
2021/03/16 04:41:29;;;;;;;;;29.50;28.75;;;;;;;;5020092;28;12496;-82
2021/03/16 04:43:56;;;;;;;;;26.25;23.50;;;;;;;;5020489;28;11603;-77
2021/03/16 04:46:24;;;;;;;;;29.33;29.00;;;;;;;;5020846;28;11626;-80
2021/03/16 04:48:51;;;;;;;;;28.75;28.75;;;;;;;;5023660;28;11721;-82
2021/03/16 04:51:18;;;;;;;;;29.00;26.75;;;;;;;;5022671;28;11711;-83
2021/03/16 04:53:45;;;;;;;;;34.00;30.25;;;;;;;;5023761;28;11611;-76
2021/03/16 04:56:12;;;;;;;;;31.25;30.50;;;;;;;;5021044;28;11694;-82
2021/03/16 04:58:38;;;;;;;;;36.75;32.25;;;;;;;;5024667;28;11624;-82
2021/03/16 05:01:05;;;;;;;;;34.75;28.75;;;;;;;;5022890;28;11564;-79
2021/03/16 05:03:33;;;;;;;;;34.00;31.75;;;;;;;;5027263;28;11746;-79
2021/03/16 05:06:00;;;;;;;;;35.75;26.50;;;;;;;;5021074;28;11584;-81
2021/03/16 05:08:27;;;;;;;;;31.75;31.75;;;;;;;;5025604;28;11752;-78
2021/03/16 05:10:54;;;;;;;;;32.75;27.25;;;;;;;;5022608;28;11616;-81
2021/03/16 05:13:21;;;;;;;;;44.25;38.50;;;;;;;;5017741;28;11750;-78
2021/03/16 05:15:49;;;;;;;;;38.50;36.25;;;;;;;;5025913;28;11629;-85
2021/03/16 05:18:17;;;;;;;;;25.50;25.50;;;;;;;;5030001;28;11637;-76
2021/03/16 05:20:45;;;;;;;;;36.75;32.00;;;;;;;;5026960;28;11613;-85
2021/03/16 05:23:12;;;;;;;;;41.25;32.50;;;;;;;;5027581;28;11692;-83
2021/03/16 05:25:39;;;;;;;;;35.75;34.75;;;;;;;;5022643;28;11650;-79
2021/03/16 05:28:06;;;;;;;;;33.25;31.00;;;;;;;;5024803;28;11719;-82
2021/03/16 05:30:33;;;;;;;;;44.50;35.25;;;;;;;;5019657;28;11658;-80
2021/03/16 05:33:01;;;;;;;;;32.50;29.50;;;;;;;;5025971;28;12399;-79
2021/03/16 05:35:29;;;;;;;;;39.25;33.75;;;;;;;;5022050;28;11657;-80
2021/03/16 05:37:57;;;;;;;;;27.75;27.75;;;;;;;;5027274;28;12544;-79
2021/03/16 05:40:28;;;;;;;;;32.50;28.50;;;;;;;;5025582;28;11671;-79
2021/03/16 05:42:56;;;;;;;;;34.25;29.25;;;;;;;;5020143;28;11605;-74
2021/03/16 05:45:23;;;;;;;;;36.50;31.75;;;;;;;;5021943;28;11573;-78
2021/03/16 05:47:50;;;;;;;;;40.50;40.50;;;;;;;;5025164;28;11620;-80
2021/03/16 05:50:17;;;;;;;;;41.00;35.75;;;;;;;;5026162;28;11719;-74
2021/03/16 05:52:45;;;;;;;;;28.25;28.25;;;;;;;;5025314;28;11616;-73
2021/03/16 05:55:13;;;;;;;;;41.75;34.75;;;;;;;;5023849;28;11708;-72
2021/03/16 05:57:40;;;;;;;;;37.75;30.25;;;;;;;;5011864;28;11652;-74
2021/03/16 06:00:08;;;;;;;;;51.00;35.75;;;;;;;;5016292;28;11604;-76
2021/03/16 06:02:37;;;;;;;;;48.50;38.75;;;;;;;;5020289;28;11661;-74
2021/03/16 06:05:05;;;;;;;;;33.75;31.25;;;;;;;;5021705;28;11701;-73
2021/03/16 06:07:32;;;;;;;;;41.50;38.50;;;;;;;;5022870;28;11613;-75
2021/03/16 06:10:00;;;;;;;;;39.25;39.25;;;;;;;;5019875;28;11751;-75
2021/03/16 06:12:32;;;;;;;;;32.25;31.75;;;;;;;;5021397;28;11742;-77
2021/03/16 06:15:08;;;;;;;;;34.75;33.50;;;;;;;;5021932;28;11635;-77
2021/03/16 06:17:42;;;;;;;;;45.00;39.50;;;;;;;;5024567;28;11755;-79
2021/03/16 06:20:11;;;;;;;;;42.25;38.00;;;;;;;;5020690;28;12470;-74
2021/03/16 06:22:38;;;;;;;;;36.25;35.25;;;;;;;;5018332;28;11742;-74
2021/03/16 06:25:06;;;;;;;;;43.50;40.25;;;;;;;;5018114;28;11603;-74
2021/03/16 06:27:34;;;;;;;;;47.75;38.50;;;;;;;;5020479;28;11626;-75
2021/03/16 06:30:01;;;;;;;;;34.50;32.50;;;;;;;;5021578;28;11634;-80
2021/03/16 06:32:35;;;;;;;;;32.25;25.75;;;;;;;;5021163;28;11589;-79
2021/03/16 06:35:03;;;;;;;;;36.25;31.75;;;;;;;;5023216;28;11636;-75
2021/03/16 06:37:31;;;;;;;;;41.00;37.25;;;;;;;;5023306;28;11664;-75
2021/03/16 06:40:00;;;;;;;;;37.25;36.00;;;;;;;;5020634;28;11748;-76
2021/03/16 06:42:29;;;;;;;;;34.75;29.75;;;;;;;;5017378;28;11694;-76
2021/03/16 06:45:01;;;;;;;;;36.25;33.75;;;;;;;;5020417;28;11607;-76
2021/03/16 06:47:28;;;;;;;;;53.75;43.75;;;;;;;;5021566;28;11657;-75
2021/03/16 06:49:55;;;;;;;;;36.00;33.75;;;;;;;;5021933;28;11606;-75
2021/03/16 06:52:27;;;;;;;;;39.00;34.50;;;;;;;;5022310;28;11621;-76
2021/03/16 06:54:54;;;;;;;;;40.75;39.00;;;;;;;;5020808;28;11611;-76
2021/03/16 06:57:25;;;;;;;;;41.00;39.00;;;;;;;;5018059;28;11669;-75
2021/03/16 06:59:51;;;;;;;;;35.25;34.75;;;;;;;;5018901;28;11703;-77
2021/03/16 07:02:19;;;;;;;;;44.75;37.50;;;;;;;;5023440;28;11080;-76
2021/03/16 07:04:46;;;;;;;;;43.75;41.50;;;;;;;;5023807;28;11754;-75
2021/03/16 07:07:13;;;;;;;;;35.25;32.00;;;;;;;;5023146;28;11601;-75
2021/03/16 07:09:40;;;;;;;;;34.50;32.00;;;;;;;;5023441;28;11609;-74
2021/03/16 07:12:09;;;;;;;;;31.50;28.75;;;;;;;;5023705;28;11686;-75
2021/03/16 07:14:37;;;;;;;;;42.00;36.00;;;;;;;;5020800;28;11604;-76
2021/03/16 07:17:05;;;;;;;;;34.25;32.25;;;;;;;;5024788;28;11618;-76
2021/03/16 07:19:33;;;;;;;;;50.75;42.25;;;;;;;;5022953;28;12388;-76
2021/03/16 07:22:00;;;;;;;;;41.75;39.50;;;;;;;;5021135;28;11600;-75
2021/03/16 07:24:30;;;;;;;;;35.25;34.00;;;;;;;;5021190;28;11595;-76
2021/03/16 07:26:57;;;;;;;;;20.75;18.75;;;;;;;;5024299;28;11604;-76
2021/03/16 07:29:26;;;;;;;;;38.75;28.75;;;;;;;;5014209;28;11553;-76
2021/03/16 07:31:53;;;;;;;;;30.75;27.25;;;;;;;;5020825;28;11729;-75
2021/03/16 07:34:21;;;;;;;;;47.75;42.00;;;;;;;;5024905;28;11718;-76
2021/03/16 07:36:50;;;;;;;;;37.50;36.75;;;;;;;;5022322;28;11092;-75
2021/03/16 07:39:19;;;;;;;;;37.75;31.75;;;;;;;;5012617;28;11606;-75
2021/03/16 07:41:46;;;;;;;;;41.75;39.75;;;;;;;;5014359;28;12503;-76
2021/03/16 07:44:15;;;;;;;;;58.75;47.25;;;;;;;;5017426;28;11624;-76
2021/03/16 07:46:46;;;;;;;;;85.00;65.25;;;;;;;;5017566;28;11742;-70
2021/03/16 07:49:14;;;;;;;;;73.50;58.25;;;;;;;;5015098;28;11746;-69
2021/03/16 07:51:43;;;;;;;;;41.75;36.75;;;;;;;;5023647;28;11606;-69
2021/03/16 07:54:12;;;;;;;;;51.00;41.25;;;;;;;;5012273;28;11640;-70
2021/03/16 07:56:41;;;;;;;;;38.75;34.00;;;;;;;;5016237;28;11611;-70
2021/03/16 07:59:09;;;;;;;;;42.50;39.25;;;;;;;;5012245;28;12277;-71
2021/03/16 08:01:46;;;;;;;;;36.00;33.00;;;;;;;;5022666;28;11579;-70
2021/03/16 08:04:13;;;;;;;;;51.75;31.50;;;;;;;;5023628;28;11593;-71
2021/03/16 08:06:41;;;;;;;;;38.50;37.00;;;;;;;;5022700;28;11636;-71
2021/03/16 08:09:21;;;;;;;;;34.75;31.25;;;;;;;;5022986;28;11581;-70
2021/03/16 08:11:48;;;;;;;;;45.75;40.00;;;;;;;;5014146;28;11607;-71
2021/03/16 08:14:25;;;;;;;;;35.00;31.75;;;;;;;;5022013;28;11607;-70
2021/03/16 08:16:52;;;;;;;;;36.75;30.75;;;;;;;;5022522;28;11698;-70
2021/03/16 08:19:20;;;;;;;;;41.25;36.00;;;;;;;;5022820;28;11591;-71
2021/03/16 08:21:55;;;;;;;;;46.00;38.75;;;;;;;;5021026;28;11591;-71
2021/03/16 08:24:34;;;;;;;;;58.50;46.50;;;;;;;;5012091;28;11716;-71
2021/03/16 08:27:01;;;;;;;;;49.50;43.50;;;;;;;;5022461;28;11813;-70
2021/03/16 08:29:29;;;;;;;;;42.25;38.50;;;;;;;;5017468;28;11776;-72
2021/03/16 08:31:57;;;;;;;;;44.25;39.00;;;;;;;;5021866;28;11691;-72
2021/03/16 08:34:25;;;;;;;;;47.00;36.50;;;;;;;;5021293;28;11608;-70
2021/03/16 08:36:52;;;;;;;;;42.75;38.75;;;;;;;;5021480;28;11612;-71
2021/03/16 08:39:20;;;;;;;;;48.50;41.25;;;;;;;;5021180;28;11623;-71
2021/03/16 08:41:57;;;;;;;;;76.25;60.50;;;;;;;;5017135;28;11617;-72
2021/03/16 08:44:24;;;;;;;;;76.25;60.75;;;;;;;;5016731;28;11645;-70
2021/03/16 08:46:51;;;;;;;;;58.25;46.75;;;;;;;;5015818;28;12663;-70
2021/03/16 08:49:20;;;;;;;;;58.50;46.25;;;;;;;;5021965;28;11596;-70
2021/03/16 08:51:48;;;;;;;;;39.25;32.75;;;;;;;;5022900;28;11598;-72
2021/03/16 08:54:23;;;;;;;;;36.00;36.00;;;;;;;;5020580;28;11592;-71
2021/03/16 08:56:51;;;;;;;;;36.50;35.00;;;;;;;;5012939;28;11566;-71
2021/03/16 08:59:20;;;;;;;;;40.75;36.75;;;;;;;;5018786;28;11758;-70
2021/03/16 09:01:49;;;;;;;;;36.50;33.75;;;;;;;;5022097;28;11523;-70
2021/03/16 09:04:17;;;;;;;;;52.00;43.25;;;;;;;;5022479;28;13111;-70
2021/03/16 09:06:44;;;;;;;;;47.50;42.25;;;;;;;;5020788;28;11664;-70
2021/03/16 09:09:13;;;;;;;;;46.50;38.25;;;;;;;;5021548;28;11685;-70
2021/03/16 09:11:42;;;;;;;;;46.25;41.00;;;;;;;;5021202;28;11563;-70
2021/03/16 09:14:11;;;;;;;;;57.25;45.00;;;;;;;;5021992;28;11595;-70
2021/03/16 09:16:43;;;;;;;;;39.50;37.75;;;;;;;;5014681;28;11643;-70
2021/03/16 09:19:12;;;;;;;;;37.50;35.25;;;;;;;;5020858;28;11586;-69
2021/03/16 09:21:50;;;;;;;;;37.00;32.75;;;;;;;;5021168;28;11526;-69
2021/03/16 09:24:23;;;;;;;;;37.75;32.50;;;;;;;;5018384;28;11556;-70
2021/03/16 09:26:59;;;;;;;;;45.50;37.00;;;;;;;;5018778;28;11567;-69
2021/03/16 09:29:29;;;;;;;;;37.50;33.25;;;;;;;;5019728;28;11540;-70
2021/03/16 09:31:58;;;;;;;;;37.75;34.00;;;;;;;;5020643;28;11640;-70
2021/03/16 09:34:27;;;;;;;;;39.25;38.00;;;;;;;;5020357;28;11551;-70
2021/03/16 09:36:58;;;;;;;;;41.25;38.75;;;;;;;;5018560;28;11667;-69
2021/03/16 09:39:26;;;;;;;;;45.50;39.25;;;;;;;;5019952;28;11574;-70
2021/03/16 09:41:54;;;;;;;;;46.50;40.50;;;;;;;;5016120;28;11682;-69
2021/03/16 09:44:28;;;;;;;;;31.00;26.50;;;;;;;;5022319;28;11654;-69
2021/03/16 09:46:56;;;;;;;;;39.50;35.50;;;;;;;;5024616;28;11573;-70
2021/03/16 09:49:34;;;;;;;;;39.00;35.75;;;;;;;;5026657;28;11556;-69
2021/03/16 09:52:03;;;;;;;;;45.00;39.75;;;;;;;;5023805;28;11564;-71
2021/03/16 09:54:36;;;;;;;;;44.25;33.75;;;;;;;;5024607;28;11568;-70
2021/03/16 09:57:06;;;;;;;;;46.50;40.25;;;;;;;;5016158;28;11606;-70
2021/03/16 09:59:40;;;;;;;;;39.75;37.75;;;;;;;;5019799;28;11657;-70
2021/03/16 10:02:09;;;;;;;;;48.75;40.25;;;;;;;;5024527;28;11640;-71
2021/03/16 10:04:49;;;;;;;;;53.50;42.75;;;;;;;;5024581;28;13169;-70
2021/03/16 10:07:26;;;;;;;;;45.00;40.75;;;;;;;;5023254;28;11681;-69
2021/03/16 10:09:53;;;;;;;;;46.75;38.25;;;;;;;;5024583;28;11622;-69
2021/03/16 10:12:22;;;;;;;;;50.50;42.00;;;;;;;;5015500;28;11547;-70
2021/03/16 10:14:53;;;;;;;;;49.75;44.00;;;;;;;;5018247;28;11668;-71
2021/03/16 10:17:29;;;;;;;;;49.25;42.25;;;;;;;;5020679;28;12417;-71
2021/03/16 10:19:59;;;;;;;;;58.75;45.25;;;;;;;;5027064;28;11711;-70
2021/03/16 10:22:30;;;;;;;;;44.00;40.25;;;;;;;;5024494;28;11605;-70
2021/03/16 10:25:11;;;;;;;;;49.50;42.25;;;;;;;;5025733;28;11628;-69
2021/03/16 10:27:38;;;;;;;;;67.75;50.50;;;;;;;;5018887;28;12396;-68
2021/03/16 10:30:06;;;;;;;;;58.00;47.50;;;;;;;;5015380;28;11657;-71
2021/03/16 10:32:35;;;;;;;;;58.50;47.50;;;;;;;;5024481;28;11636;-70
2021/03/16 10:35:02;;;;;;;;;61.25;46.50;;;;;;;;5024102;28;12409;-70
2021/03/16 10:37:29;;;;;;;;;53.75;45.00;;;;;;;;5025577;28;11622;-70
2021/03/16 10:39:56;;;;;;;;;62.25;48.25;;;;;;;;5021351;28;12381;-70
2021/03/16 10:42:23;;;;;;;;;59.75;46.00;;;;;;;;5022868;28;11637;-71
2021/03/16 10:44:50;;;;;;;;;59.25;49.00;;;;;;;;5022170;28;12259;-68
2021/03/16 10:47:17;;;;;;;;;62.50;49.50;;;;;;;;5025039;28;11623;-69
2021/03/16 10:49:45;;;;;;;;;61.00;49.00;;;;;;;;5023232;28;11610;-68
2021/03/16 10:52:12;;;;;;;;;57.50;46.25;;;;;;;;5018222;28;12476;-69
2021/03/16 10:54:39;;;;;;;;;55.75;45.75;;;;;;;;5023097;28;11731;-69
2021/03/16 10:57:07;;;;;;;;;64.50;50.75;;;;;;;;5021358;28;12554;-68
2021/03/16 10:59:34;;;;;;;;;54.75;45.25;;;;;;;;5021594;28;11616;-69
2021/03/16 11:02:00;;;;;;;;;54.75;46.50;;;;;;;;5023152;28;11584;-69
2021/03/16 11:04:27;;;;;;;;;57.25;42.50;;;;;;;;5025207;28;11640;-68
2021/03/16 11:06:55;;;;;;;;;58.00;45.75;;;;;;;;5024441;28;12416;-68
2021/03/16 11:09:22;;;;;;;;;50.75;41.00;;;;;;;;5022444;28;12300;-68
2021/03/16 11:11:49;;;;;;;;;55.00;42.25;;;;;;;;5018503;28;11616;-68
2021/03/16 11:14:16;;;;;;;;;53.25;46.00;;;;;;;;5010256;28;12488;-68
2021/03/16 11:16:43;;;;;;;;;58.25;45.00;;;;;;;;5017862;28;11658;-69
2021/03/16 11:19:10;;;;;;;;;55.25;46.00;;;;;;;;5023601;28;11624;-69
2021/03/16 11:21:37;;;;;;;;;53.00;45.00;;;;;;;;5024604;28;11619;-68
2021/03/16 11:24:06;;;;;;;;;56.25;45.25;;;;;;;;5019030;28;11598;-68
2021/03/16 11:26:35;;;;;;;;;52.75;43.00;;;;;;;;5019398;28;11721;-69
2021/03/16 11:29:02;;;;;;;;;50.25;41.50;;;;;;;;5019298;28;11714;-68
2021/03/16 11:31:30;;;;;;;;;66.25;52.75;;;;;;;;5018682;28;11548;-68
2021/03/16 11:33:57;;;;;;;;;52.75;44.50;;;;;;;;5015464;28;11590;-69
2021/03/16 11:36:23;;;;;;;;;51.25;44.00;;;;;;;;5021317;28;12313;-68
2021/03/16 11:38:50;;;;;;;;;40.00;35.75;;;;;;;;5015501;28;11572;-68
2021/03/16 11:41:18;;;;;;;;;47.50;39.00;;;;;;;;5010081;28;11561;-69
2021/03/16 11:43:45;;;;;;;;;43.00;39.50;;;;;;;;5015647;28;11574;-70
2021/03/16 11:46:12;;;;;;;;;46.00;38.00;;;;;;;;5018550;28;11551;-68
2021/03/16 11:48:39;;;;;;;;;43.00;35.75;;;;;;;;5021176;28;11544;-70
2021/03/16 11:51:06;;;;;;;;;50.25;39.75;;;;;;;;5023774;28;11580;-70
2021/03/16 11:53:33;;;;;;;;;32.75;32.75;;;;;;;;5021408;28;11677;-70
2021/03/16 11:56:00;;;;;;;;;41.75;38.00;;;;;;;;5023040;28;11598;-70
2021/03/16 11:58:29;;;;;;;;;42.25;33.25;;;;;;;;5016925;28;11576;-72
2021/03/16 12:00:56;;;;;;;;;49.00;40.25;;;;;;;;5022328;28;12377;-70
2021/03/16 12:03:23;;;;;;;;;42.75;36.25;;;;;;;;5021684;28;11562;-69
2021/03/16 12:05:50;;;;;;;;;32.75;28.25;;;;;;;;5023477;28;11680;-69
2021/03/16 12:08:17;;;;;;;;;35.50;33.50;;;;;;;;5021349;28;11350;-69
2021/03/16 12:10:46;;;;;;;;;37.50;33.25;;;;;;;;5020310;28;12350;-71
2021/03/16 12:13:13;;;;;;;;;43.00;38.25;;;;;;;;5018867;28;12222;-68
2021/03/16 12:15:42;;;;;;;;;36.75;35.00;;;;;;;;5020510;28;11557;-71
2021/03/16 12:18:10;;;;;;;;;45.75;36.75;;;;;;;;5022376;28;11571;-70
2021/03/16 12:20:37;;;;;;;;;34.00;31.00;;;;;;;;5021622;28;11371;-70
2021/03/16 12:23:05;;;;;;;;;34.75;32.00;;;;;;;;5020392;28;11260;-72
2021/03/16 12:25:34;;;;;;;;;38.50;36.50;;;;;;;;5018097;28;11285;-70
2021/03/16 12:28:03;;;;;;;;;31.25;27.00;;;;;;;;5018526;28;11426;-71
2021/03/16 12:30:31;;;;;;;;;37.50;34.50;;;;;;;;5022640;28;11212;-70
2021/03/16 12:32:59;;;;;;;;;36.25;31.75;;;;;;;;5021602;28;12428;-70
2021/03/16 12:35:26;;;;;;;;;31.25;27.75;;;;;;;;5022893;28;11365;-71
2021/03/16 12:37:53;;;;;;;;;40.50;34.50;;;;;;;;5020849;28;11552;-71
2021/03/16 12:40:20;;;;;;;;;43.25;38.75;;;;;;;;5015691;28;11546;-71
2021/03/16 12:42:47;;;;;;;;;45.00;36.75;;;;;;;;5018691;28;11317;-72
2021/03/16 12:45:14;;;;;;;;;40.50;36.25;;;;;;;;5018475;28;11693;-71
2021/03/16 12:47:41;;;;;;;;;49.00;37.25;;;;;;;;5023635;28;11595;-71
2021/03/16 12:50:10;;;;;;;;;40.75;38.25;;;;;;;;5022644;28;11566;-71
2021/03/16 12:52:37;;;;;;;;;41.50;38.50;;;;;;;;5022087;28;11574;-71
2021/03/16 12:55:05;;;;;;;;;36.00;35.75;;;;;;;;5013611;28;11559;-71
2021/03/16 12:57:32;;;;;;;;;48.25;39.00;;;;;;;;5021407;28;11214;-71
2021/03/16 12:59:59;;;;;;;;;44.50;36.50;;;;;;;;5020572;28;11334;-72
2021/03/16 13:02:26;;;;;;;;;34.75;29.50;;;;;;;;5020778;28;11200;-71
2021/03/16 13:04:53;;;;;;;;;33.25;32.00;;;;;;;;5021567;28;11113;-71
2021/03/16 13:07:21;;;;;;;;;35.75;34.00;;;;;;;;5019261;28;11164;-70
2021/03/16 13:09:48;;;;;;;;;31.25;29.00;;;;;;;;5019789;28;11361;-71
2021/03/16 13:12:17;;;;;;;;;40.00;36.00;;;;;;;;5019413;28;11172;-71
2021/03/16 13:14:44;;;;;;;;;38.75;36.75;;;;;;;;5018254;28;11175;-71
2021/03/16 13:17:13;;;;;;;;;33.50;33.50;;;;;;;;5018750;28;11261;-71
2021/03/16 13:19:40;;;;;;;;;42.00;34.50;;;;;;;;5023963;28;11267;-71
2021/03/16 13:22:07;;;;;;;;;38.75;34.50;;;;;;;;5027162;28;11335;-72
2021/03/16 13:24:40;;;;;;;;;41.00;34.25;;;;;;;;5023533;28;11400;-72
2021/03/16 13:27:07;;;;;;;;;39.25;32.00;;;;;;;;5025720;28;11245;-70
2021/03/16 13:29:34;;;;;;;;;43.75;39.25;;;;;;;;5023141;28;11315;-70
2021/03/16 13:32:10;;;;;;;;;40.00;37.50;;;;;;;;5025266;28;11215;-71
2021/03/16 13:34:43;;;;;;;;;38.50;37.50;;;;;;;;5025761;28;11392;-70
2021/03/16 13:37:13;;;;;;;;;34.75;31.75;;;;;;;;5026664;28;11236;-69
2021/03/16 13:39:41;;;;;;;;;39.00;35.00;;;;;;;;5028407;28;12122;-70
2021/03/16 13:42:08;;;;;;;;;39.00;35.00;;;;;;;;5026967;28;11185;-72
2021/03/16 13:44:35;;;;;;;;;36.25;29.75;;;;;;;;5023026;28;11564;-70
2021/03/16 13:47:02;;;;;;;;;45.75;34.50;;;;;;;;5025059;28;12069;-70
2021/03/16 13:49:29;;;;;;;;;39.25;34.50;;;;;;;;5025555;28;11204;-70
2021/03/16 13:51:56;;;;;;;;;44.00;39.75;;;;;;;;5025068;28;11994;-71
2021/03/16 13:54:23;;;;;;;;;40.75;38.00;;;;;;;;5022995;28;11559;-72
2021/03/16 13:56:53;;;;;;;;;40.00;35.00;;;;;;;;5023151;28;12146;-70
2021/03/16 13:59:20;;;;;;;;;41.00;32.50;;;;;;;;5019579;28;11590;-72
2021/03/16 14:01:47;;;;;;;;;40.25;37.50;;;;;;;;5024278;28;11442;-72
2021/03/16 14:04:14;;;;;;;;;41.25;38.25;;;;;;;;5024855;28;11352;-72
2021/03/16 14:06:41;;;;;;;;;33.00;33.00;;;;;;;;5026600;28;11319;-72
2021/03/16 14:09:08;;;;;;;;;40.75;37.25;;;;;;;;5018968;28;11205;-69
2021/03/16 14:11:35;;;;;;;;;34.75;33.25;;;;;;;;5015894;28;11318;-69
2021/03/16 14:14:03;;;;;;;;;41.00;36.00;;;;;;;;5020975;28;11573;-68
2021/03/16 14:16:30;;;;;;;;;40.50;37.75;;;;;;;;5024377;28;11266;-69
2021/03/16 14:18:56;;;;;;;;;47.50;38.50;;;;;;;;5024489;28;11551;-70
2021/03/16 14:21:25;;;;;;;;;37.25;34.00;;;;;;;;5024750;28;11340;-70
2021/03/16 14:23:52;;;;;;;;;44.75;38.00;;;;;;;;5024863;28;11251;-71